Time;durP1;ratioP1;P1;durP2;ratioP2;P2;SDS_P1;SDS_P2;PMS_P1;PMS_P2;Temp;Humidity;BMP_temperature;BMP_pressure;BME280_temperature;BME280_humidity;BME280_pressure;Samples;Min_cycle;Max_cycle;Signal;HPM_P1;HPM_P2
2023/10/29 00:00:46;;;;;;;6.07;3.77;;;;;;;8.27;100.00;96042.84;5017986;28;20405;-78
2023/10/29 00:03:12;;;;;;;6.00;3.35;;;;;;;8.27;100.00;96042.09;5017874;28;20488;-78
2023/10/29 00:05:40;;;;;;;6.47;3.45;;;;;;;8.26;100.00;96041.31;5018200;28;20782;-78
2023/10/29 00:08:08;;;;;;;6.57;3.40;;;;;;;8.23;100.00;96047.09;5017791;28;20436;-79
2023/10/29 00:10:35;;;;;;;5.82;3.25;;;;;;;8.23;100.00;96041.03;5018739;28;20467;-78
2023/10/29 00:13:02;;;;;;;5.88;3.20;;;;;;;8.21;100.00;96048.41;5018405;28;20412;-79
2023/10/29 00:15:28;;;;;;;5.50;3.03;;;;;;;8.17;100.00;96045.53;5017598;28;20423;-79
2023/10/29 00:17:54;;;;;;;5.35;3.15;;;;;;;8.16;100.00;96051.88;5017813;28;20411;-79
2023/10/29 00:20:20;;;;;;;5.10;3.03;;;;;;;8.13;100.00;96058.47;5017362;28;20465;-79
2023/10/29 00:22:48;;;;;;;4.93;3.20;;;;;;;8.12;100.00;96051.59;5016979;28;20432;-79
2023/10/29 00:25:14;;;;;;;4.43;2.70;;;;;;;8.11;100.00;96049.25;5016545;28;20441;-79
2023/10/29 00:27:40;;;;;;;4.38;3.30;;;;;;;8.11;100.00;96046.63;5017102;28;20789;-79
2023/10/29 00:30:08;;;;;;;5.30;3.10;;;;;;;8.09;100.00;96052.16;5016827;28;20903;-79
2023/10/29 00:32:34;;;;;;;10.68;3.40;;;;;;;8.08;100.00;96049.78;5016180;28;20481;-79
2023/10/29 00:35:00;;;;;;;7.45;3.58;;;;;;;8.06;100.00;96042.13;5016298;28;20905;-79
2023/10/29 00:37:26;;;;;;;4.45;3.10;;;;;;;8.06;100.00;96041.34;5018745;28;20436;-79
2023/10/29 00:39:54;;;;;;;5.85;3.03;;;;;;;8.05;100.00;96040.56;5016925;28;20472;-79
2023/10/29 00:42:20;;;;;;;7.03;3.53;;;;;;;8.07;100.00;96053.47;5016618;28;20397;-79
2023/10/29 00:44:47;;;;;;;8.93;3.67;;;;;;;8.02;100.00;96038.47;5016268;28;20500;-79
2023/10/29 00:47:13;;;;;;;7.30;3.50;;;;;;;8.03;100.00;96045.31;5016526;28;20397;-79
2023/10/29 00:49:39;;;;;;;7.30;3.50;;;;;;;8.02;100.00;96049.00;5016973;28;20456;-79
2023/10/29 00:52:05;;;;;;;6.77;3.50;;;;;;;8.05;100.00;96042.41;5016388;28;20428;-79
2023/10/29 00:54:32;;;;;;;5.85;3.47;;;;;;;8.05;100.00;96037.91;5016491;28;20420;-79
2023/10/29 00:57:00;;;;;;;7.68;3.45;;;;;;;8.07;100.00;96035.03;5017455;28;20892;-78
2023/10/29 00:59:30;;;;;;;5.20;3.20;;;;;;;8.11;100.00;96039.50;5015587;28;20499;-78
2023/10/29 01:01:56;;;;;;;5.53;3.00;;;;;;;8.13;100.00;96026.81;5016128;28;20405;-79
2023/10/29 01:04:22;;;;;;;5.47;3.25;;;;;;;8.16;100.00;96010.50;5019325;28;20427;-79
2023/10/29 01:06:49;;;;;;;4.45;3.03;;;;;;;8.19;100.00;96009.19;5019680;28;20428;-79
2023/10/29 01:09:16;;;;;;;7.85;3.60;;;;;;;8.21;100.00;96011.50;5017394;28;20420;-79
2023/10/29 01:11:42;;;;;;;4.68;3.22;;;;;;;8.25;100.00;96015.22;5019289;28;20403;-79
2023/10/29 01:14:10;;;;;;;6.10;3.25;;;;;;;8.28;100.00;96022.56;5020672;28;20452;-78
2023/10/29 01:16:36;;;;;;;7.03;3.53;;;;;;;8.29;100.00;96027.56;5021276;28;20396;-79
2023/10/29 01:19:02;;;;;;;7.00;3.37;;;;;;;8.31;100.00;96022.06;5018767;28;20433;-79
2023/10/29 01:21:29;;;;;;;8.05;3.78;;;;;;;8.32;100.00;96029.72;5019215;28;20404;-79
2023/10/29 01:23:56;;;;;;;7.73;3.40;;;;;;;8.35;100.00;96015.19;5018883;28;20504;-79
2023/10/29 01:26:22;;;;;;;5.82;2.85;;;;;;;8.34;100.00;96016.25;5019558;28;20400;-79
2023/10/29 01:28:49;;;;;;;5.80;2.90;;;;;;;8.33;100.00;96002.28;5019163;28;20396;-78
2023/10/29 01:31:16;;;;;;;4.78;2.70;;;;;;;8.30;100.00;96002.78;5018907;28;20792;-79
2023/10/29 01:33:42;;;;;;;4.30;2.72;;;;;;;8.29;100.00;95992.50;5033040;28;20415;-79
2023/10/29 01:36:08;;;;;;;3.90;2.77;;;;;;;8.26;100.00;95990.44;5039116;28;20399;-79
2023/10/29 01:38:35;;;;;;;3.80;2.60;;;;;;;8.21;100.00;95985.94;5038303;28;20910;-79
2023/10/29 01:41:01;;;;;;;4.23;2.40;;;;;;;8.18;100.00;95978.59;5038495;28;20445;-79
2023/10/29 01:43:28;;;;;;;3.38;2.70;;;;;;;8.16;100.00;95972.81;5035662;28;20401;-79
2023/10/29 01:45:54;;;;;;;6.15;2.80;;;;;;;8.14;100.00;95975.69;5019443;28;20416;-79
2023/10/29 01:48:23;;;;;;;3.95;2.90;;;;;;;8.12;100.00;95977.81;5019288;28;20776;-79
2023/10/29 01:50:52;;;;;;;4.63;2.83;;;;;;;8.10;100.00;95961.50;5019529;28;20399;-79
2023/10/29 01:53:19;;;;;;;7.00;3.15;;;;;;;8.09;100.00;95965.19;5019165;28;20419;-79
2023/10/29 01:55:45;;;;;;;6.03;3.35;;;;;;;8.08;100.00;95971.50;5018973;28;20924;-79
2023/10/29 01:58:12;;;;;;;4.80;3.05;;;;;;;8.08;100.00;95954.91;5019358;28;20789;-79
2023/10/29 02:00:39;;;;;;;6.45;3.20;;;;;;;8.07;100.00;95966.50;5019395;28;20696;-79
2023/10/29 02:03:05;;;;;;;9.18;3.55;;;;;;;8.04;100.00;95972.34;5021083;28;20396;-78
2023/10/29 02:05:33;;;;;;;4.60;3.17;;;;;;;8.02;100.00;95966.53;5019312;28;20451;-79
2023/10/29 02:07:59;;;;;;;5.70;3.30;;;;;;;8.00;100.00;95958.09;5017966;28;20408;-78
2023/10/29 02:10:25;;;;;;;5.65;3.13;;;;;;;7.97;100.00;95956.78;5018266;28;20405;-78
2023/10/29 02:12:53;;;;;;;5.75;3.00;;;;;;;7.94;100.00;95954.69;5018342;28;20484;-79
2023/10/29 02:15:19;;;;;;;5.75;2.97;;;;;;;7.93;100.00;95945.22;5018266;28;20443;-78
2023/10/29 02:17:45;;;;;;;6.87;3.50;;;;;;;7.87;100.00;95935.75;5018655;28;20401;-79
2023/10/29 02:20:12;;;;;;;5.60;3.30;;;;;;;7.87;100.00;95941.03;5017898;28;20476;-78
2023/10/29 02:22:40;;;;;;;5.32;3.20;;;;;;;7.84;100.00;95935.50;5017417;28;20423;-79
2023/10/29 02:25:06;;;;;;;6.30;3.50;;;;;;;7.82;100.00;95921.81;5017434;28;20471;-79
2023/10/29 02:27:32;;;;;;;7.07;3.40;;;;;;;7.81;100.00;95930.78;5018717;28;20428;-79
2023/10/29 02:29:59;;;;;;;6.57;3.60;;;;;;;7.78;100.00;95935.53;5017854;28;20405;-79
2023/10/29 02:32:25;;;;;;;12.93;4.00;;;;;;;7.74;100.00;95934.47;5022657;28;20461;-79
2023/10/29 02:34:51;;;;;;;6.40;3.72;;;;;;;7.72;100.00;95928.69;5037055;28;20779;-78
2023/10/29 02:37:17;;;;;;;8.35;3.33;;;;;;;7.72;100.00;95933.16;5038287;28;20763;-79
2023/10/29 02:39:44;;;;;;;5.40;3.35;;;;;;;7.71;100.00;95937.66;5037802;28;20398;-77
2023/10/29 02:42:14;;;;;;;7.95;4.03;;;;;;;7.67;100.00;95936.59;5038858;28;20410;-78
2023/10/29 02:44:40;;;;;;;7.57;3.38;;;;;;;7.64;100.00;95931.88;5025062;28;21080;-79
2023/10/29 02:47:06;;;;;;;5.35;3.10;;;;;;;7.65;100.00;95932.66;5020317;28;20960;-78
2023/10/29 02:49:33;;;;;;;5.53;3.33;;;;;;;7.61;100.00;95939.50;5022675;28;20427;-80
2023/10/29 02:51:59;;;;;;;6.57;3.17;;;;;;;7.60;100.00;95932.66;5023073;28;20401;-78
2023/10/29 02:54:25;;;;;;;11.25;3.70;;;;;;;7.56;100.00;95939.53;5025105;28;20466;-79
2023/10/29 02:56:53;;;;;;;6.45;3.28;;;;;;;7.55;100.00;95937.94;5024855;28;20450;-80
2023/10/29 02:59:20;;;;;;;7.40;3.30;;;;;;;7.54;100.00;95928.47;5023426;28;20484;-80
2023/10/29 03:01:46;;;;;;;5.00;3.17;;;;;;;7.52;100.00;95930.59;5021943;28;20546;-79
2023/10/29 03:04:12;;;;;;;5.80;3.00;;;;;;;7.50;100.00;95916.91;5022298;28;20405;-80
2023/10/29 03:06:41;;;;;;;6.07;3.17;;;;;;;7.47;100.00;95920.06;5026117;28;20446;-80
2023/10/29 03:09:07;;;;;;;8.57;3.80;;;;;;;7.45;100.00;95927.44;5021320;28;20401;-80
2023/10/29 03:11:34;;;;;;;6.13;3.30;;;;;;;7.43;100.00;95924.28;5020866;28;20786;-80
2023/10/29 03:14:01;;;;;;;6.78;3.55;;;;;;;7.41;100.00;95913.22;5022044;28;20904;-80
2023/10/29 03:16:27;;;;;;;3.92;2.95;;;;;;;7.41;100.00;95919.28;5021431;28;20436;-80
2023/10/29 03:18:53;;;;;;;4.45;3.22;;;;;;;7.42;100.00;95914.81;5021368;28;20476;-79
2023/10/29 03:21:20;;;;;;;3.75;3.03;;;;;;;7.41;100.00;95908.75;5021516;28;20392;-80
2023/10/29 03:23:46;;;;;;;7.28;3.20;;;;;;;7.42;100.00;95909.56;5021359;28;20425;-80
2023/10/29 03:26:12;;;;;;;7.97;3.70;;;;;;;7.41;100.00;95907.97;5022108;28;20397;-80
2023/10/29 03:28:41;;;;;;;5.72;3.47;;;;;;;7.41;100.00;95921.91;5021871;28;20404;-80
2023/10/29 03:31:13;;;;;;;5.07;3.13;;;;;;;7.43;100.00;95924.28;5022714;28;20416;-79
2023/10/29 03:33:40;;;;;;;6.47;3.35;;;;;;;7.43;100.00;95919.03;5033569;28;20867;-80
2023/10/29 03:36:07;;;;;;;4.85;3.10;;;;;;;7.45;100.00;95916.91;5040975;28;20410;-78
2023/10/29 03:38:33;;;;;;;5.78;3.00;;;;;;;7.46;100.00;95914.00;5040694;28;20418;-79
2023/10/29 03:41:00;;;;;;;5.03;3.10;;;;;;;7.46;100.00;95926.38;5040294;28;20887;-80
2023/10/29 03:43:26;;;;;;;7.10;3.30;;;;;;;7.47;100.00;95920.06;5036390;28;20439;-78
2023/10/29 03:45:52;;;;;;;5.63;2.90;;;;;;;7.48;100.00;95919.81;5018692;28;20830;-78
2023/10/29 03:48:20;;;;;;;4.38;2.92;;;;;;;7.49;100.00;95916.13;5017957;28;20578;-79
2023/10/29 03:50:46;;;;;;;4.47;3.00;;;;;;;7.49;100.00;95921.38;5017945;28;20821;-79
2023/10/29 03:53:13;;;;;;;5.72;3.13;;;;;;;7.50;100.00;95922.97;5015863;28;20396;-78
2023/10/29 03:55:39;;;;;;;5.05;3.03;;;;;;;7.50;100.00;95919.53;5016312;28;20428;-80
2023/10/29 03:58:05;;;;;;;6.03;3.28;;;;;;;7.49;100.00;95918.75;5022714;28;20408;-78
2023/10/29 04:00:32;;;;;;;5.10;2.80;;;;;;;7.51;100.00;95915.84;5029303;28;20499;-80
2023/10/29 04:02:58;;;;;;;5.20;2.70;;;;;;;7.53;100.00;95922.41;5019513;28;20397;-80
2023/10/29 04:05:25;;;;;;;5.57;2.90;;;;;;;7.57;100.00;95914.78;5018714;28;20409;-80
2023/10/29 04:07:52;;;;;;;4.38;2.70;;;;;;;7.58;100.00;95917.16;5017989;28;20475;-80
2023/10/29 04:10:18;;;;;;;5.00;3.08;;;;;;;7.60;100.00;95922.91;5017860;28;20408;-80
2023/10/29 04:12:44;;;;;;;3.42;2.90;;;;;;;7.61;100.00;95913.19;5018410;28;20407;-80
2023/10/29 04:15:11;;;;;;;6.72;3.00;;;;;;;7.60;100.00;95908.97;5017532;28;20417;-80
2023/10/29 04:17:37;;;;;;;5.57;2.70;;;;;;;7.61;100.00;95911.34;5017847;28;20393;-80
2023/10/29 04:20:05;;;;;;;5.15;2.95;;;;;;;7.61;100.00;95907.91;5017700;28;20401;-80
2023/10/29 04:22:33;;;;;;;4.97;2.63;;;;;;;7.64;100.00;95902.13;5017984;28;20479;-80
2023/10/29 04:24:59;;;;;;;3.72;2.75;;;;;;;7.64;100.00;95899.47;5018191;28;20409;-81
2023/10/29 04:27:25;;;;;;;4.93;2.92;;;;;;;7.68;100.00;95896.03;5018067;28;20397;-81
2023/10/29 04:29:51;;;;;;;3.97;2.75;;;;;;;7.74;100.00;95884.41;5020496;28;20407;-80
2023/10/29 04:32:17;;;;;;;4.10;2.50;;;;;;;7.84;100.00;95883.59;5020546;28;20441;-79
2023/10/29 04:34:44;;;;;;;5.45;2.80;;;;;;;7.93;100.00;95883.81;5037125;28;20521;-80
2023/10/29 04:37:10;;;;;;;5.43;2.70;;;;;;;8.03;100.00;95878.53;5036594;28;20732;-80
2023/10/29 04:39:38;;;;;;;3.53;2.53;;;;;;;8.08;100.00;95884.53;5037127;28;20925;-79
2023/10/29 04:42:05;;;;;;;3.92;2.50;;;;;;;8.12;100.00;95880.28;5037517;28;20450;-80
2023/10/29 04:44:33;;;;;;;4.63;2.30;;;;;;;8.14;100.00;95880.81;5024249;28;20396;-80
2023/10/29 04:46:59;;;;;;;3.58;2.30;;;;;;;8.16;100.00;95886.63;5018958;28;20401;-77
2023/10/29 04:49:26;;;;;;;2.33;1.92;;;;;;;8.15;100.00;95890.31;5018646;28;20396;-78
2023/10/29 04:51:52;;;;;;;2.55;2.03;;;;;;;8.15;100.00;95894.78;5018758;28;20407;-80
2023/10/29 04:54:18;;;;;;;3.78;2.22;;;;;;;8.14;100.00;95883.44;5021735;28;20459;-80
2023/10/29 04:56:46;;;;;;;3.88;2.20;;;;;;;8.13;100.00;95894.25;5020551;28;20475;-80
2023/10/29 04:59:13;;;;;;;6.72;2.60;;;;;;;8.09;100.00;95874.78;5020762;28;20877;-80
2023/10/29 05:01:39;;;;;;;3.33;2.30;;;;;;;8.09;100.00;95877.44;5021305;28;20788;-79
2023/10/29 05:04:05;;;;;;;2.78;1.90;;;;;;;8.08;100.00;95875.84;5020256;28;20412;-79
2023/10/29 05:06:31;;;;;;;2.65;2.00;;;;;;;8.07;100.00;95867.16;5021234;28;20423;-79
2023/10/29 05:08:58;;;;;;;3.33;2.03;;;;;;;8.04;100.00;95872.97;5020196;28;20396;-79
2023/10/29 05:11:24;;;;;;;2.97;2.10;;;;;;;8.03;100.00;95865.34;5019610;28;20401;-79
2023/10/29 05:13:52;;;;;;;3.67;2.17;;;;;;;8.00;100.00;95863.25;5019364;28;20479;-79
2023/10/29 05:16:20;;;;;;;3.23;2.00;;;;;;;7.96;100.00;95855.09;5020215;28;20440;-79
2023/10/29 05:18:46;;;;;;;3.45;1.80;;;;;;;7.93;100.00;95853.00;5019986;28;20401;-79
2023/10/29 05:21:12;;;;;;;2.67;1.80;;;;;;;7.90;100.00;95856.16;5020637;28;20431;-79
2023/10/29 05:23:38;;;;;;;5.20;2.05;;;;;;;7.89;100.00;95861.72;5020027;28;20431;-78
2023/10/29 05:26:05;;;;;;;2.60;1.80;;;;;;;7.91;100.00;95862.22;5019409;28;20397;-79
2023/10/29 05:28:31;;;;;;;2.70;1.80;;;;;;;7.92;100.00;95877.78;5020492;28;20435;-80
2023/10/29 05:30:58;;;;;;;3.95;1.90;;;;;;;7.97;100.00;95872.47;5019955;28;20873;-79
2023/10/29 05:33:24;;;;;;;2.85;2.17;;;;;;;8.02;100.00;95861.13;5019860;28;20531;-79
2023/10/29 05:35:51;;;;;;;5.47;2.22;;;;;;;8.00;100.00;95866.66;5020789;28;20460;-77
2023/10/29 05:38:17;;;;;;;3.40;1.87;;;;;;;8.07;100.00;95866.38;5019545;28;20404;-80
2023/10/29 05:40:44;;;;;;;1.80;1.70;;;;;;;8.09;100.00;95869.53;5019677;28;20403;-79
2023/10/29 05:43:10;;;;;;;4.95;2.05;;;;;;;8.11;100.00;95875.31;5019475;28;20409;-80
2023/10/29 05:45:36;;;;;;;2.75;1.73;;;;;;;8.14;100.00;95878.19;5019957;28;20470;-79
2023/10/29 05:48:04;;;;;;;2.65;1.77;;;;;;;8.19;100.00;95879.22;5019289;28;20404;-79
2023/10/29 05:50:30;;;;;;;1.70;1.60;;;;;;;8.21;100.00;95875.25;5019168;28;20397;-79
2023/10/29 05:52:56;;;;;;;3.75;1.83;;;;;;;8.22;100.00;95866.28;5019034;28;20936;-78
2023/10/29 05:55:22;;;;;;;1.65;1.55;;;;;;;8.25;100.00;95859.69;5018653;28;20913;-78
2023/10/29 05:57:49;;;;;;;2.15;1.60;;;;;;;8.26;100.00;95862.06;5017985;28;20483;-78
2023/10/29 06:00:16;;;;;;;3.50;1.90;;;;;;;8.25;100.00;95862.31;5018192;28;20401;-78
2023/10/29 06:02:42;;;;;;;1.97;1.70;;;;;;;8.27;100.00;95860.22;5018308;28;20416;-79
2023/10/29 06:05:09;;;;;;;2.70;1.60;;;;;;;8.26;100.00;95862.06;5018299;28;20404;-79
2023/10/29 06:07:37;;;;;;;2.03;1.52;;;;;;;8.26;100.00;95869.97;5019001;28;20405;-79
2023/10/29 06:10:03;;;;;;;4.80;2.20;;;;;;;8.25;100.00;95867.59;5022223;28;20793;-79
2023/10/29 06:12:29;;;;;;;2.50;1.60;;;;;;;8.28;100.00;95877.56;5023205;28;20446;-78
2023/10/29 06:14:56;;;;;;;1.67;1.50;;;;;;;8.29;100.00;95882.56;5022687;28;20574;-79
2023/10/29 06:17:22;;;;;;;2.43;1.80;;;;;;;8.31;100.00;95891.03;5019558;28;20393;-79
2023/10/29 06:19:48;;;;;;;3.33;1.60;;;;;;;8.32;100.00;95887.34;5020990;28;20424;-79
2023/10/29 06:22:15;;;;;;;3.20;1.70;;;;;;;8.34;100.00;95897.63;5020216;28;20444;-78
2023/10/29 06:24:42;;;;;;;2.22;1.77;;;;;;;8.37;100.00;95897.06;5020519;28;20463;-78
2023/10/29 06:27:08;;;;;;;4.30;1.80;;;;;;;8.40;100.00;95896.53;5021699;28;20415;-79
2023/10/29 06:29:38;;;;;;;1.77;1.63;;;;;;;8.44;100.00;95900.97;5021771;28;20413;-78
2023/10/29 06:32:04;;;;;;;1.98;1.70;;;;;;;8.47;100.00;95905.72;5019800;28;20401;-79
2023/10/29 06:34:30;;;;;;;2.30;1.60;;;;;;;8.52;100.00;95910.94;5022995;28;20416;-79
2023/10/29 06:36:56;;;;;;;4.18;2.03;;;;;;;8.57;100.00;95909.34;5020046;28;20397;-80
2023/10/29 06:39:24;;;;;;;2.28;1.70;;;;;;;8.62;100.00;95917.22;5020505;28;20893;-79
2023/10/29 06:41:50;;;;;;;3.80;2.00;;;;;;;8.66;100.00;95931.41;5020997;28;20412;-79
2023/10/29 06:44:16;;;;;;;2.45;1.83;;;;;;;8.69;100.00;95926.41;5020784;28;20401;-79
2023/10/29 06:46:42;;;;;;;2.20;1.77;;;;;;;8.76;100.00;95936.66;5022480;28;20435;-79
2023/10/29 06:49:08;;;;;;;4.87;1.90;;;;;;;8.78;100.00;95939.81;5022796;28;20556;-79
2023/10/29 06:51:34;;;;;;;2.72;1.80;;;;;;;8.87;100.00;95949.47;5027115;28;20412;-78
2023/10/29 06:54:01;;;;;;;2.80;1.90;;;;;;;8.95;100.00;95952.63;5029553;28;20467;-79
2023/10/29 06:56:28;;;;;;;2.90;1.73;;;;;;;9.12;100.00;95966.19;5027464;28;20473;-78
2023/10/29 06:58:54;;;;;;;2.30;1.77;;;;;;;9.23;100.00;95970.34;5023134;28;20403;-79
2023/10/29 07:01:20;;;;;;;2.35;1.60;;;;;;;9.31;100.00;95965.25;5020892;28;20432;-80
2023/10/29 07:03:46;;;;;;;2.83;1.60;;;;;;;9.40;100.00;95972.59;5023730;28;20405;-79
2023/10/29 07:06:15;;;;;;;1.50;1.40;;;;;;;9.46;100.00;95971.47;5022669;28;20397;-78
2023/10/29 07:08:45;;;;;;;1.48;1.38;;;;;;;9.54;100.00;95978.78;5022544;28;20421;-79
2023/10/29 07:11:11;;;;;;;2.00;1.30;;;;;;;9.61;100.00;95980.03;5025664;28;20410;-80
2023/10/29 07:13:38;;;;;;;2.35;1.33;;;;;;;9.67;100.00;95986.06;5025293;28;20403;-79
2023/10/29 07:16:05;;;;;;;3.22;1.50;;;;;;;9.76;100.00;95980.97;5027836;28;20471;-78
2023/10/29 07:18:31;;;;;;;2.97;1.60;;;;;;;9.84;100.00;95983.78;5023577;28;20392;-79
2023/10/29 07:20:58;;;;;;;2.42;1.50;;;;;;;9.90;100.00;95987.94;5026494;28;20442;-78
2023/10/29 07:23:24;;;;;;;2.00;1.40;;;;;;;9.94;100.00;95991.59;5019670;28;20416;-78
2023/10/29 07:25:51;;;;;;;1.50;1.30;;;;;;;9.98;100.00;95984.69;5015712;28;20416;-78
2023/10/29 07:28:17;;;;;;;1.50;1.40;;;;;;;10.03;100.00;95984.63;5014926;28;20469;-77
2023/10/29 07:30:45;;;;;;;1.30;1.20;;;;;;;10.09;100.00;95988.00;5010978;28;20405;-78
2023/10/29 07:33:12;;;;;;;3.63;1.50;;;;;;;10.14;100.00;95989.81;5020424;28;20401;-78
2023/10/29 07:35:38;;;;;;;1.23;1.13;;;;;;;10.17;100.00;95994.50;5017288;28;20893;-78
2023/10/29 07:38:06;;;;;;;1.30;1.20;;;;;;;10.20;100.00;95992.13;5018144;28;20444;-80
2023/10/29 07:40:32;;;;;;;1.88;1.27;;;;;;;10.23;100.00;95996.84;5018763;28;20401;-77
2023/10/29 07:42:58;;;;;;;1.33;1.23;;;;;;;10.25;100.00;96002.66;5015453;28;20488;-77
2023/10/29 07:45:25;;;;;;;1.80;1.10;;;;;;;10.27;100.00;96005.81;5015229;28;20401;-77
2023/10/29 07:47:52;;;;;;;1.80;1.40;;;;;;;10.30;100.00;96004.47;5018557;28;20462;-79
2023/10/29 07:50:20;;;;;;;1.13;1.02;;;;;;;10.34;100.00;96006.25;5020198;28;20895;-78
2023/10/29 07:52:46;;;;;;;1.95;1.23;;;;;;;10.36;100.00;96001.47;5019963;28;20401;-79
2023/10/29 07:55:12;;;;;;;1.58;1.38;;;;;;;10.38;100.00;96004.59;5016961;28;20421;-77
2023/10/29 07:57:39;;;;;;;1.70;1.13;;;;;;;10.42;100.00;96012.78;5009185;28;20401;-78
2023/10/29 08:00:07;;;;;;;2.40;1.23;;;;;;;10.44;100.00;96016.72;5016265;28;20453;-79
2023/10/29 08:02:33;;;;;;;1.80;1.20;;;;;;;10.48;100.00;96017.72;5017630;28;20423;-78
2023/10/29 08:05:00;;;;;;;1.80;1.20;;;;;;;10.50;100.00;96024.59;5017871;28;20400;-79
2023/10/29 08:07:29;;;;;;;3.30;1.45;;;;;;;10.55;100.00;96032.44;5018704;28;20403;-78
2023/10/29 08:09:58;;;;;;;2.38;1.27;;;;;;;10.63;100.00;96037.91;5019431;28;20441;-79
2023/10/29 08:12:24;;;;;;;1.73;1.30;;;;;;;10.75;100.00;96040.91;5020124;28;20427;-79
2023/10/29 08:14:51;;;;;;;2.83;1.40;;;;;;;10.92;100.00;96029.84;5019147;28;20421;-79
2023/10/29 08:17:17;;;;;;;2.07;1.60;;;;;;;11.08;100.00;96028.56;5023080;28;20480;-78
2023/10/29 08:19:43;;;;;;;1.55;1.20;;;;;;;11.12;100.00;96024.28;5019081;28;20408;-78
2023/10/29 08:22:11;;;;;;;2.60;1.42;;;;;;;11.22;100.00;96028.63;5031174;28;20486;-78
2023/10/29 08:24:38;;;;;;;2.58;1.58;;;;;;;11.19;100.00;96032.66;5027105;28;20405;-79
2023/10/29 08:27:06;;;;;;;2.38;1.30;;;;;;;11.25;100.00;96041.31;5023745;28;20897;-79
2023/10/29 08:29:34;;;;;;;2.53;1.40;;;;;;;11.35;100.00;96040.38;5021387;28;20447;-79
2023/10/29 08:32:00;;;;;;;3.75;1.70;;;;;;;11.30;100.00;96046.50;5026564;28;20471;-80
2023/10/29 08:34:27;;;;;;;2.70;1.45;;;;;;;11.35;100.00;96059.66;5026834;28;20459;-79
2023/10/29 08:36:53;;;;;;;3.53;1.50;;;;;;;11.31;100.00;96057.91;5030067;28;20483;-79
2023/10/29 08:39:21;;;;;;;1.80;1.50;;;;;;;11.41;100.00;96063.84;5025539;28;20392;-79
2023/10/29 08:41:48;;;;;;;2.70;1.50;;;;;;;11.39;100.00;96062.53;5030341;28;20450;-79
2023/10/29 08:44:14;;;;;;;2.47;1.40;;;;;;;11.46;100.00;96065.63;5027982;28;20407;-80
2023/10/29 08:46:41;;;;;;;2.97;1.30;;;;;;;11.48;100.00;96068.78;5025292;28;20487;-79
2023/10/29 08:49:07;;;;;;;1.55;1.30;;;;;;;11.52;100.00;96062.59;5026865;28;20432;-80
2023/10/29 08:51:34;;;;;;;2.08;1.23;;;;;;;11.56;100.00;96053.00;5030018;28;20394;-80
2023/10/29 08:54:02;;;;;;;1.80;1.45;;;;;;;11.61;100.00;96052.91;5027500;28;20479;-80
2023/10/29 08:56:32;;;;;;;2.58;1.35;;;;;;;11.64;100.00;96055.00;5025584;28;20500;-83
2023/10/29 08:58:58;;;;;;;1.58;1.25;;;;;;;11.61;100.00;96033.56;5025749;28;20403;-80
2023/10/29 09:01:24;;;;;;;2.97;1.45;;;;;;;11.60;100.00;96032.78;5023716;28;20413;-80
2023/10/29 09:03:51;;;;;;;2.95;1.30;;;;;;;11.70;100.00;96033.69;5025366;28;20905;-79
2023/10/29 09:06:17;;;;;;;3.33;1.63;;;;;;;11.70;100.00;96028.41;5025872;28;20416;-80
2023/10/29 09:08:43;;;;;;;4.07;1.60;;;;;;;11.79;100.00;96026.69;5026144;28;20447;-80
2023/10/29 09:11:13;;;;;;;3.20;1.40;;;;;;;11.86;100.00;96027.88;5028067;28;20412;-80
2023/10/29 09:13:41;;;;;;;2.10;1.40;;;;;;;11.81;100.00;96022.66;5023029;28;20889;-80
2023/10/29 09:16:08;;;;;;;6.10;1.60;;;;;;;11.98;100.00;96024.75;5024492;28;20421;-79
2023/10/29 09:18:34;;;;;;;3.10;1.42;;;;;;;12.13;100.00;96019.16;5025542;28;20405;-80
2023/10/29 09:21:00;;;;;;;3.33;1.80;;;;;;;12.28;100.00;96024.19;5026769;28;20397;-81
2023/10/29 09:23:27;;;;;;;5.22;1.80;;;;;;;12.21;100.00;96018.50;5024371;28;20842;-79
2023/10/29 09:25:54;;;;;;;3.75;1.50;;;;;;;12.08;100.00;96011.31;5028385;28;20451;-81
2023/10/29 09:28:21;;;;;;;4.15;1.45;;;;;;;12.18;100.00;96013.75;5023321;28;20845;-78
2023/10/29 09:30:48;;;;;;;2.25;1.50;;;;;;;12.21;100.00;96007.09;5023096;28;20496;-80
2023/10/29 09:33:15;;;;;;;2.50;1.48;;;;;;;12.27;100.00;95993.44;5023368;28;20410;-80
2023/10/29 09:35:41;;;;;;;1.95;1.30;;;;;;;12.27;100.00;95988.13;5024401;28;20416;-80
2023/10/29 09:38:07;;;;;;;3.72;1.90;;;;;;;12.21;100.00;95986.66;5022236;28;20412;-82
2023/10/29 09:40:35;;;;;;;2.63;1.98;;;;;;;12.22;100.00;95985.56;5020703;28;20409;-82
2023/10/29 09:43:04;;;;;;;2.10;1.60;;;;;;;12.19;100.00;95994.13;5021073;28;20804;-81
2023/10/29 09:45:37;;;;;;;1.60;1.33;;;;;;;12.19;100.00;95990.66;5021739;28;20515;-80
2023/10/29 09:48:07;;;;;;;1.98;1.50;;;;;;;12.26;100.00;95991.84;5022874;28;20396;-82
2023/10/29 09:50:34;;;;;;;7.00;2.20;;;;;;;12.23;100.00;95983.72;5021742;28;20411;-81
2023/10/29 09:53:02;;;;;;;2.13;1.42;;;;;;;12.39;100.00;95985.78;5020675;28;20432;-79
2023/10/29 09:55:32;;;;;;;2.20;1.43;;;;;;;12.50;100.00;95981.03;5020508;28;20482;-83
2023/10/29 09:57:59;;;;;;;1.92;1.33;;;;;;;12.61;100.00;95978.97;5020614;28;20400;-80
2023/10/29 10:00:26;;;;;;;1.63;1.20;;;;;;;12.70;100.00;95982.47;5033526;28;20450;-82
2023/10/29 10:02:53;;;;;;;3.65;1.42;;;;;;;12.75;100.00;95958.47;5041868;28;20410;-83
2023/10/29 10:05:23;;;;;;;1.73;1.30;;;;;;;12.81;100.00;95957.25;5038958;28;20441;-82
2023/10/29 10:07:52;;;;;;;2.55;1.10;;;;;;;12.88;100.00;95951.53;5024101;28;20389;-82
2023/10/29 10:10:21;;;;;;;1.80;1.02;;;;;;;12.92;100.00;95947.22;5022150;28;20404;-80
2023/10/29 10:12:48;;;;;;;1.10;1.00;;;;;;;12.91;100.00;95949.09;5023151;28;20401;-79
2023/10/29 10:15:16;;;;;;;1.10;1.00;;;;;;;12.89;100.00;95945.94;5020691;28;20424;-81
2023/10/29 10:17:48;;;;;;;1.45;1.10;;;;;;;12.88;100.00;95947.00;5003011;28;20427;-80
2023/10/29 10:20:14;;;;;;;1.10;1.00;;;;;;;12.86;100.00;95951.03;5019206;28;20438;-81
2023/10/29 10:23:03;;;;;;;2.33;1.30;;;;;;;12.80;100.00;95947.72;5019041;28;20409;-80
2023/10/29 10:25:31;;;;;;;2.72;1.40;;;;;;;12.75;100.00;95948.63;5020672;28;20416;-79
2023/10/29 10:27:58;;;;;;;1.80;1.27;;;;;;;12.75;100.00;95943.31;5027355;28;21322;-79
2023/10/29 10:30:26;;;;;;;1.63;1.30;;;;;;;12.76;100.00;95947.56;5011083;28;20402;-79
2023/10/29 10:32:53;;;;;;;1.50;1.00;;;;;;;12.75;100.00;95942.53;5041174;28;20407;-79
2023/10/29 10:35:19;;;;;;;1.75;1.10;;;;;;;12.76;100.00;95944.13;5039520;28;20419;-82
2023/10/29 10:37:53;;;;;;;1.45;1.20;;;;;;;12.78;100.00;95947.22;5039535;28;20421;-78
2023/10/29 10:40:26;;;;;;;1.30;1.03;;;;;;;12.86;100.00;95945.72;5024468;28;20408;-79
2023/10/29 10:42:55;;;;;;;1.25;1.10;;;;;;;12.93;100.00;95946.88;5021910;28;20747;-80
2023/10/29 10:45:26;;;;;;;1.95;1.25;;;;;;;13.04;100.00;95945.59;5021280;28;20397;-81
2023/10/29 10:47:54;;;;;;;1.17;1.08;;;;;;;13.12;100.00;95944.88;5019290;28;20400;-81
2023/10/29 10:50:21;;;;;;;2.28;1.40;;;;;;;13.11;100.00;95945.16;5020185;28;20403;-80
2023/10/29 10:52:49;;;;;;;2.33;1.60;;;;;;;13.16;100.00;95950.38;5023692;28;20762;-82
2023/10/29 10:55:15;;;;;;;1.77;1.30;;;;;;;13.20;100.00;95946.03;5025804;28;20456;-81
2023/10/29 10:57:47;;;;;;;3.10;1.35;;;;;;;13.26;100.00;95944.03;5027685;28;20391;-80
2023/10/29 11:00:14;;;;;;;2.85;1.60;;;;;;;13.20;100.00;95947.91;5032131;28;20391;-81
2023/10/29 11:02:41;;;;;;;2.13;1.50;;;;;;;13.23;100.00;95948.06;5021119;28;20400;-81
2023/10/29 11:05:10;;;;;;;2.92;1.80;;;;;;;13.20;100.00;95953.22;5021462;28;20405;-80
2023/10/29 11:07:45;;;;;;;2.33;1.50;;;;;;;13.21;100.00;95952.13;5028796;28;20409;-80
2023/10/29 11:10:13;;;;;;;1.57;1.37;;;;;;;13.21;100.00;95955.59;5021486;28;20515;-80
2023/10/29 11:12:40;;;;;;;5.32;1.80;;;;;;;13.10;100.00;95946.25;5021800;28;20964;-80
2023/10/29 11:15:19;;;;;;;4.13;1.73;;;;;;;13.15;100.00;95943.50;5028442;28;20927;-81
2023/10/29 11:17:57;;;;;;;2.35;1.60;;;;;;;13.15;100.00;95939.00;5010702;28;20493;-79
2023/10/29 11:20:51;;;;;;;2.57;1.40;;;;;;;13.17;100.00;95931.47;5028139;28;20494;-79
2023/10/29 11:23:24;;;;;;;2.83;1.70;;;;;;;13.22;100.00;95921.84;5021787;28;20535;-79
2023/10/29 11:26:10;;;;;;;2.97;1.50;;;;;;;13.25;100.00;95908.72;5020661;28;20404;-79
2023/10/29 11:28:45;;;;;;;2.33;1.48;;;;;;;13.37;100.00;95916.13;5019209;28;20413;-79
2023/10/29 11:31:14;;;;;;;1.60;1.30;;;;;;;13.52;100.00;95907.78;5020843;28;21281;-80